Time;durP1;ratioP1;P1;durP2;ratioP2;P2;SDS_P1;SDS_P2;PMS_P1;PMS_P2;Temp;Humidity;BMP_temperature;BMP_pressure;BME280_temperature;BME280_humidity;BME280_pressure;Samples;Min_cycle;Max_cycle;Signal;HPM_P1;HPM_P2
2024/02/18 00:01:42;;;;;;;3.10;2.55;;;5.90;99.90;;;;;;5031819;28;20245;-74
2024/02/18 00:04:09;;;;;;;3.38;2.97;;;5.90;99.90;;;;;;5032292;28;20300;-74
2024/02/18 00:06:36;;;;;;;3.97;2.72;;;5.90;99.90;;;;;;5031583;28;20340;-74
2024/02/18 00:09:05;;;;;;;4.85;2.67;;;6.00;99.90;;;;;;5031364;28;20235;-74
2024/02/18 00:11:32;;;;;;;2.55;2.35;;;6.00;99.90;;;;;;5031227;28;20228;-74
2024/02/18 00:13:58;;;;;;;3.60;2.78;;;6.00;99.90;;;;;;5031566;28;20228;-74
2024/02/18 00:16:25;;;;;;;3.20;2.90;;;6.00;99.90;;;;;;5031465;28;20220;-73
2024/02/18 00:18:52;;;;;;;6.93;2.70;;;6.10;99.90;;;;;;5031336;28;20209;-73
2024/02/18 00:21:19;;;;;;;3.95;3.10;;;6.10;99.90;;;;;;5031466;28;20209;-73
2024/02/18 00:23:45;;;;;;;4.25;3.88;;;6.10;99.90;;;;;;5031105;28;20709;-74
2024/02/18 00:26:14;;;;;;;3.65;1.92;;;6.10;99.90;;;;;;5031414;28;20218;-74
2024/02/18 00:28:41;;;;;;;3.67;3.17;;;6.20;99.90;;;;;;5031108;28;20217;-74
2024/02/18 00:31:08;;;;;;;2.80;2.38;;;6.20;99.90;;;;;;5031187;28;20240;-74
2024/02/18 00:33:34;;;;;;;3.35;2.58;;;6.20;99.90;;;;;;5031003;28;20225;-74
2024/02/18 00:36:02;;;;;;;5.60;2.90;;;6.20;99.90;;;;;;5031331;28;20210;-74
2024/02/18 00:38:28;;;;;;;3.53;2.92;;;6.20;99.90;;;;;;5031078;28;20267;-74
2024/02/18 00:40:55;;;;;;;4.10;2.92;;;6.20;99.90;;;;;;5031223;28;20214;-74
2024/02/18 00:43:23;;;;;;;4.10;2.88;;;6.30;99.90;;;;;;5030976;28;20229;-74
2024/02/18 00:45:50;;;;;;;3.28;2.53;;;6.30;99.90;;;;;;5031188;28;20682;-74
2024/02/18 00:48:17;;;;;;;3.08;2.80;;;6.30;99.90;;;;;;5031004;28;20209;-74
2024/02/18 00:50:44;;;;;;;4.93;3.05;;;6.40;99.90;;;;;;5030944;28;20633;-74
2024/02/18 00:53:11;;;;;;;4.05;2.80;;;6.40;99.90;;;;;;5030930;28;20233;-74
2024/02/18 00:55:42;;;;;;;2.92;2.63;;;6.40;99.90;;;;;;5030909;28;20212;-74
2024/02/18 00:58:10;;;;;;;5.05;3.22;;;6.40;99.90;;;;;;5030969;28;20210;-74
2024/02/18 01:00:38;;;;;;;3.55;2.58;;;6.40;99.90;;;;;;5030962;28;20209;-74
2024/02/18 01:03:05;;;;;;;3.20;2.90;;;6.40;99.90;;;;;;5030839;28;20646;-74
2024/02/18 01:05:32;;;;;;;4.40;2.75;;;6.40;99.90;;;;;;5030900;28;20213;-73
2024/02/18 01:07:58;;;;;;;2.35;2.15;;;6.50;99.90;;;;;;5030857;28;20219;-74
2024/02/18 01:10:25;;;;;;;3.85;3.25;;;6.50;99.90;;;;;;5030708;28;20233;-74
2024/02/18 01:12:52;;;;;;;2.50;2.30;;;6.50;99.90;;;;;;5030740;28;20230;-74
2024/02/18 01:15:19;;;;;;;4.28;3.00;;;6.50;99.90;;;;;;5033651;28;20205;-74
2024/02/18 01:17:47;;;;;;;3.10;2.70;;;6.50;99.90;;;;;;5034648;28;20588;-74
2024/02/18 01:20:13;;;;;;;2.40;2.20;;;6.50;99.90;;;;;;5034744;28;20209;-74
2024/02/18 01:22:40;;;;;;;4.25;2.30;;;6.60;99.90;;;;;;5034415;28;20695;-74
2024/02/18 01:25:08;;;;;;;2.75;2.55;;;6.60;99.90;;;;;;5034772;28;20213;-74
2024/02/18 01:27:35;;;;;;;3.42;2.45;;;6.60;99.90;;;;;;5034342;28;20240;-73
2024/02/18 01:30:02;;;;;;;3.25;2.30;;;6.60;99.90;;;;;;5034654;28;20206;-74
2024/02/18 01:32:29;;;;;;;6.88;2.58;;;6.50;99.90;;;;;;5034311;28;20689;-74
2024/02/18 01:34:57;;;;;;;5.78;2.75;;;6.50;99.90;;;;;;5034573;28;20210;-74
2024/02/18 01:37:24;;;;;;;3.10;2.80;;;6.60;99.90;;;;;;5034375;28;20209;-73
2024/02/18 01:39:50;;;;;;;4.60;2.67;;;6.60;99.90;;;;;;5034304;28;20690;-74
2024/02/18 01:42:18;;;;;;;3.58;2.72;;;6.60;99.90;;;;;;5034322;28;20236;-74
2024/02/18 01:44:45;;;;;;;3.00;2.45;;;6.60;99.90;;;;;;5034340;28;20230;-73
2024/02/18 01:47:12;;;;;;;4.03;2.92;;;6.60;99.90;;;;;;5034340;28;20214;-74
2024/02/18 01:49:39;;;;;;;3.53;3.22;;;6.60;99.90;;;;;;5034074;28;20214;-74
2024/02/18 01:52:09;;;;;;;3.30;2.92;;;6.60;99.90;;;;;;5034129;28;20237;-74
2024/02/18 01:54:36;;;;;;;3.40;2.38;;;6.60;99.90;;;;;;5033978;28;20631;-74
2024/02/18 01:57:06;;;;;;;5.25;3.45;;;6.60;99.90;;;;;;5034114;28;20829;-74
2024/02/18 01:59:33;;;;;;;3.20;2.35;;;6.60;99.90;;;;;;5033753;28;20206;-74
2024/02/18 02:02:00;;;;;;;2.60;2.40;;;6.60;99.90;;;;;;5034097;28;20314;-73
2024/02/18 02:04:27;;;;;;;3.50;2.63;;;6.60;99.90;;;;;;5033908;28;20230;-74
2024/02/18 02:06:55;;;;;;;3.58;2.90;;;6.60;99.90;;;;;;5034073;28;20692;-74
2024/02/18 02:09:23;;;;;;;3.25;2.92;;;6.60;99.90;;;;;;5034143;28;20213;-74
2024/02/18 02:11:50;;;;;;;2.70;2.50;;;6.60;99.90;;;;;;5033655;28;20240;-74
2024/02/18 02:14:17;;;;;;;4.13;2.40;;;6.60;99.90;;;;;;5033737;28;20229;-73
2024/02/18 02:16:44;;;;;;;4.43;2.85;;;6.50;99.90;;;;;;5033632;28;20670;-73
2024/02/18 02:19:11;;;;;;;4.65;2.15;;;6.60;99.90;;;;;;5033455;28;20244;-73
2024/02/18 02:21:37;;;;;;;3.33;2.50;;;6.60;99.90;;;;;;5033450;28;20213;-73
2024/02/18 02:24:04;;;;;;;3.08;2.00;;;6.50;99.90;;;;;;5033575;28;20240;-73
2024/02/18 02:26:38;;;;;;;3.00;2.70;;;6.50;99.90;;;;;;5032176;28;20586;-73
2024/02/18 02:29:12;;;;;;;3.42;2.33;;;6.50;99.90;;;;;;5033299;28;20588;-73
2024/02/18 02:31:40;;;;;;;6.95;2.85;;;6.50;99.90;;;;;;5033267;28;20249;-73
2024/02/18 02:34:06;;;;;;;2.42;2.22;;;6.40;99.90;;;;;;5033384;28;20222;-73
2024/02/18 02:36:33;;;;;;;2.80;2.45;;;6.40;99.90;;;;;;5033383;28;20586;-73
2024/02/18 02:39:00;;;;;;;2.40;2.20;;;6.40;99.90;;;;;;5033261;28;20210;-73
2024/02/18 02:41:26;;;;;;;2.83;2.55;;;6.30;99.90;;;;;;5020064;28;20210;-74
2024/02/18 02:43:54;;;;;;;4.35;2.83;;;6.30;99.90;;;;;;5013145;28;20237;-73
2024/02/18 02:46:22;;;;;;;2.85;2.17;;;6.20;99.90;;;;;;5013440;28;20207;-73
2024/02/18 02:48:49;;;;;;;2.17;1.98;;;6.10;99.90;;;;;;5013065;28;20218;-74
2024/02/18 02:51:15;;;;;;;2.47;2.25;;;6.10;99.90;;;;;;5013197;28;20230;-73
2024/02/18 02:53:42;;;;;;;2.42;2.22;;;6.10;99.90;;;;;;5013057;28;20233;-73
2024/02/18 02:56:09;;;;;;;4.65;2.88;;;6.10;99.90;;;;;;5013136;28;20206;-73
2024/02/18 02:58:36;;;;;;;2.80;2.45;;;6.10;99.90;;;;;;5012948;28;20214;-73
2024/02/18 03:01:02;;;;;;;5.65;3.08;;;6.10;99.90;;;;;;5013032;28;20210;-73
2024/02/18 03:03:30;;;;;;;3.20;2.60;;;6.00;99.90;;;;;;5012653;28;20233;-73
2024/02/18 03:05:57;;;;;;;3.72;3.08;;;5.90;99.90;;;;;;5013120;28;20213;-73
2024/02/18 03:08:24;;;;;;;2.92;2.70;;;5.80;99.90;;;;;;5012871;28;20613;-74
2024/02/18 03:10:51;;;;;;;2.70;2.28;;;5.80;99.90;;;;;;5012741;28;20264;-74
2024/02/18 03:13:18;;;;;;;3.65;2.78;;;5.80;99.90;;;;;;5012754;28;20241;-74
2024/02/18 03:15:46;;;;;;;3.13;2.83;;;5.80;99.90;;;;;;5012590;28;20211;-73
2024/02/18 03:18:12;;;;;;;3.67;2.95;;;5.70;99.90;;;;;;5012694;28;20683;-73
2024/02/18 03:20:41;;;;;;;6.43;3.20;;;5.60;99.90;;;;;;5012635;28;20201;-73
2024/02/18 03:23:08;;;;;;;3.67;2.80;;;5.60;99.90;;;;;;5012516;28;20642;-73
2024/02/18 03:25:36;;;;;;;2.90;2.70;;;5.60;99.90;;;;;;5012458;28;20208;-73
2024/02/18 03:28:03;;;;;;;4.70;3.15;;;5.50;99.90;;;;;;5012530;28;20567;-73
2024/02/18 03:30:30;;;;;;;4.15;3.10;;;5.50;99.90;;;;;;5012307;28;20210;-73
2024/02/18 03:32:56;;;;;;;4.00;3.33;;;5.40;99.90;;;;;;5012338;28;20235;-73
2024/02/18 03:35:27;;;;;;;3.55;3.25;;;5.40;99.90;;;;;;5012406;28;20206;-73
2024/02/18 03:37:56;;;;;;;5.40;3.30;;;5.30;99.90;;;;;;5011799;28;20690;-73
2024/02/18 03:40:23;;;;;;;3.90;3.25;;;5.20;99.90;;;;;;5012221;28;20594;-73
2024/02/18 03:42:50;;;;;;;2.97;2.78;;;5.20;99.90;;;;;;5012029;28;20952;-73
2024/02/18 03:45:17;;;;;;;5.95;3.00;;;5.20;99.90;;;;;;5012377;28;20225;-73
2024/02/18 03:47:44;;;;;;;2.78;2.58;;;5.20;99.90;;;;;;5011941;28;20210;-74
2024/02/18 03:50:14;;;;;;;7.13;2.90;;;5.10;99.90;;;;;;5012057;28;20563;-73
2024/02/18 03:52:42;;;;;;;3.58;3.28;;;5.10;99.90;;;;;;5011738;28;20778;-73
2024/02/18 03:55:11;;;;;;;4.25;3.83;;;5.10;99.90;;;;;;5011959;28;20225;-73
2024/02/18 03:57:38;;;;;;;7.35;3.67;;;5.00;99.90;;;;;;5011805;28;20205;-73
2024/02/18 04:00:07;;;;;;;5.03;2.95;;;5.00;99.90;;;;;;5012001;28;20212;-73
2024/02/18 04:02:35;;;;;;;4.40;3.28;;;5.00;99.90;;;;;;5011668;28;20279;-74
2024/02/18 04:05:03;;;;;;;4.57;3.05;;;5.00;99.90;;;;;;5011881;28;20588;-73
2024/02/18 04:07:29;;;;;;;3.75;3.30;;;5.00;99.90;;;;;;5011603;28;20212;-73
2024/02/18 04:09:56;;;;;;;7.60;3.50;;;4.90;99.90;;;;;;5011725;28;20212;-73
2024/02/18 04:12:24;;;;;;;3.47;3.17;;;4.90;99.90;;;;;;5011589;28;20240;-73
2024/02/18 04:14:51;;;;;;;5.70;3.80;;;4.90;99.90;;;;;;5011407;28;20228;-74
2024/02/18 04:17:18;;;;;;;3.85;3.55;;;4.80;99.90;;;;;;5011558;28;20215;-73
2024/02/18 04:19:44;;;;;;;4.75;4.20;;;4.70;99.90;;;;;;5011535;28;20303;-73
2024/02/18 04:22:12;;;;;;;5.40;3.40;;;4.70;99.90;;;;;;5011622;28;20205;-73
2024/02/18 04:24:40;;;;;;;4.10;3.50;;;4.60;99.90;;;;;;5011366;28;20240;-73
2024/02/18 04:27:08;;;;;;;6.32;3.55;;;4.60;99.90;;;;;;5011550;28;20212;-74
2024/02/18 04:29:36;;;;;;;4.00;3.40;;;4.50;99.90;;;;;;5011091;28;20209;-73
2024/02/18 04:32:03;;;;;;;4.40;3.38;;;4.50;99.90;;;;;;5011401;28;20238;-73
2024/02/18 04:34:30;;;;;;;4.88;4.20;;;4.50;99.90;;;;;;5011394;28;20229;-73
2024/02/18 04:36:56;;;;;;;6.35;4.50;;;4.40;99.90;;;;;;5011298;28;20205;-73
2024/02/18 04:39:23;;;;;;;3.47;3.00;;;4.40;99.90;;;;;;5011212;28;20584;-73
2024/02/18 04:41:50;;;;;;;5.60;3.45;;;4.30;99.90;;;;;;5011148;28;20200;-73
2024/02/18 04:44:17;;;;;;;6.43;4.00;;;4.30;99.90;;;;;;5011403;28;20764;-73
2024/02/18 04:46:45;;;;;;;7.15;3.78;;;4.20;99.90;;;;;;5011198;28;20689;-73
2024/02/18 04:49:12;;;;;;;3.65;3.35;;;4.20;99.90;;;;;;5012128;28;20216;-73
2024/02/18 04:51:39;;;;;;;3.58;3.20;;;4.20;99.90;;;;;;5015117;28;20235;-74
2024/02/18 04:54:05;;;;;;;4.47;3.95;;;4.10;99.90;;;;;;5015095;28;20227;-73
2024/02/18 04:56:32;;;;;;;3.78;3.40;;;4.10;99.90;;;;;;5015309;28;20204;-73
2024/02/18 04:58:59;;;;;;;11.57;3.53;;;4.10;99.90;;;;;;5014859;28;20584;-73
2024/02/18 05:01:26;;;;;;;5.10;3.40;;;4.00;99.90;;;;;;5015302;28;20203;-74
2024/02/18 05:03:54;;;;;;;6.20;3.72;;;4.00;99.90;;;;;;5014675;28;20271;-73
2024/02/18 05:06:20;;;;;;;4.88;3.17;;;4.00;99.90;;;;;;5015207;28;20215;-73
2024/02/18 05:08:47;;;;;;;3.85;3.33;;;3.90;99.90;;;;;;5014703;28;20208;-74
2024/02/18 05:11:14;;;;;;;6.25;3.45;;;3.90;99.90;;;;;;5014958;28;20242;-73
2024/02/18 05:13:41;;;;;;;7.05;3.15;;;3.80;99.90;;;;;;5014644;28;20228;-73
2024/02/18 05:16:08;;;;;;;3.90;2.80;;;3.80;99.90;;;;;;5014791;28;20216;-73
2024/02/18 05:18:35;;;;;;;5.88;3.50;;;3.80;99.90;;;;;;5014715;28;20570;-73
2024/02/18 05:21:04;;;;;;;4.22;2.85;;;3.80;99.90;;;;;;5014787;28;20215;-74
2024/02/18 05:23:35;;;;;;;4.43;3.50;;;3.80;99.90;;;;;;5014570;28;20266;-73
2024/02/18 05:26:02;;;;;;;7.05;4.20;;;3.70;99.90;;;;;;5014758;28;20635;-73
2024/02/18 05:28:30;;;;;;;3.95;3.20;;;3.60;99.90;;;;;;5014702;28;20598;-73
2024/02/18 05:30:57;;;;;;;3.95;3.55;;;3.60;99.90;;;;;;5014471;28;20262;-73
2024/02/18 05:33:24;;;;;;;5.22;3.72;;;3.60;99.90;;;;;;5014481;28;20237;-73
2024/02/18 05:35:51;;;;;;;6.60;3.53;;;3.50;99.90;;;;;;5014512;28;20278;-73
2024/02/18 05:38:19;;;;;;;3.63;3.08;;;3.50;99.90;;;;;;5006516;28;20207;-73
2024/02/18 05:40:47;;;;;;;7.55;3.88;;;3.40;99.90;;;;;;5014491;28;20633;-73
2024/02/18 05:43:14;;;;;;;4.57;3.80;;;3.40;99.90;;;;;;5014378;28;20293;-73
2024/02/18 05:45:41;;;;;;;5.32;4.40;;;3.40;99.90;;;;;;5014508;28;20207;-73
2024/02/18 05:48:07;;;;;;;8.55;4.32;;;3.40;99.90;;;;;;5014398;28;20218;-73
2024/02/18 05:50:34;;;;;;;7.90;3.95;;;3.30;99.90;;;;;;5014503;28;20224;-73
2024/02/18 05:53:01;;;;;;;4.53;3.72;;;3.30;99.90;;;;;;5014203;28;20239;-72
2024/02/18 05:55:29;;;;;;;4.97;3.95;;;3.30;99.90;;;;;;5014343;28;20203;-72
2024/02/18 05:57:56;;;;;;;7.97;5.13;;;3.30;99.90;;;;;;5013716;28;20214;-73
2024/02/18 06:00:22;;;;;;;6.78;4.25;;;3.30;99.90;;;;;;5014013;28;20212;-73
2024/02/18 06:02:49;;;;;;;7.45;4.20;;;3.30;99.90;;;;;;5014072;28;20716;-73
2024/02/18 06:05:17;;;;;;;8.98;4.63;;;3.30;99.90;;;;;;5014291;28;20630;-73
2024/02/18 06:07:45;;;;;;;4.95;4.30;;;3.30;99.90;;;;;;5013927;28;20207;-73
2024/02/18 06:10:12;;;;;;;5.57;4.63;;;3.30;99.90;;;;;;5014157;28;20210;-73
2024/02/18 06:12:40;;;;;;;5.60;4.03;;;3.30;99.90;;;;;;5013581;28;20742;-73
2024/02/18 06:15:08;;;;;;;4.93;4.05;;;3.30;99.90;;;;;;5013994;28;20215;-73
2024/02/18 06:17:35;;;;;;;5.95;4.00;;;3.30;99.90;;;;;;5013716;28;20207;-73
2024/02/18 06:20:02;;;;;;;7.00;4.03;;;3.20;99.90;;;;;;5013531;28;20210;-73
2024/02/18 06:22:29;;;;;;;6.60;3.83;;;3.30;99.90;;;;;;5013614;28;20241;-73
2024/02/18 06:24:56;;;;;;;6.00;4.03;;;3.30;99.90;;;;;;5013550;28;20216;-73
2024/02/18 06:27:23;;;;;;;7.65;3.97;;;3.30;99.90;;;;;;5013694;28;20582;-73
2024/02/18 06:29:51;;;;;;;9.10;4.70;;;3.30;99.90;;;;;;5013551;28;20246;-73
2024/02/18 06:32:18;;;;;;;6.53;4.80;;;3.30;99.90;;;;;;5013560;28;20703;-73
2024/02/18 06:34:45;;;;;;;5.82;4.35;;;3.30;99.90;;;;;;5013622;28;20238;-73
2024/02/18 06:37:11;;;;;;;7.57;4.53;;;3.40;99.90;;;;;;5014477;28;20302;-74
2024/02/18 06:39:38;;;;;;;6.72;4.25;;;3.40;99.90;;;;;;5013324;28;20216;-74
2024/02/18 06:42:05;;;;;;;7.55;4.28;;;3.50;99.90;;;;;;5013236;28;20204;-74
2024/02/18 06:44:32;;;;;;;10.32;5.38;;;3.60;99.90;;;;;;5013362;28;20821;-74
2024/02/18 06:47:00;;;;;;;11.90;5.60;;;3.60;99.90;;;;;;5013168;28;20243;-74
2024/02/18 06:49:27;;;;;;;7.47;4.03;;;3.70;99.90;;;;;;5013155;28;20207;-74
2024/02/18 06:51:55;;;;;;;6.00;3.60;;;3.70;99.90;;;;;;5012906;28;20252;-74
2024/02/18 06:54:21;;;;;;;5.40;4.57;;;3.80;99.90;;;;;;5013217;28;20607;-74
2024/02/18 06:56:48;;;;;;;6.40;4.35;;;3.80;99.90;;;;;;5010437;28;20203;-74
2024/02/18 06:59:15;;;;;;;4.53;3.75;;;3.90;99.90;;;;;;5010542;28;20215;-74
2024/02/18 07:01:42;;;;;;;5.85;3.55;;;3.90;99.90;;;;;;5012297;28;20646;-74
2024/02/18 07:04:11;;;;;;;4.28;3.88;;;4.00;99.90;;;;;;5010500;28;20244;-75
2024/02/18 07:06:38;;;;;;;7.15;4.45;;;4.10;99.90;;;;;;5012475;28;20248;-75
2024/02/18 07:09:05;;;;;;;5.13;4.07;;;4.10;99.90;;;;;;5012486;28;20215;-75
2024/02/18 07:11:32;;;;;;;5.38;4.35;;;4.20;99.90;;;;;;5012013;28;20737;-74
2024/02/18 07:13:58;;;;;;;7.15;4.35;;;4.20;99.90;;;;;;5012342;28;20237;-75
2024/02/18 07:16:25;;;;;;;5.10;3.50;;;4.30;99.90;;;;;;5012805;28;20211;-74
2024/02/18 07:18:52;;;;;;;4.25;3.28;;;4.30;99.90;;;;;;5012421;28;20708;-74
2024/02/18 07:21:20;;;;;;;7.95;3.63;;;4.40;99.90;;;;;;5012743;28;20215;-75
2024/02/18 07:23:47;;;;;;;4.88;3.83;;;4.30;99.90;;;;;;5012297;28;20226;-74
2024/02/18 07:26:14;;;;;;;10.15;5.07;;;4.40;99.90;;;;;;5012618;28;20263;-75
2024/02/18 07:28:41;;;;;;;7.40;3.85;;;4.40;99.90;;;;;;5012240;28;20208;-75
2024/02/18 07:31:09;;;;;;;4.60;3.63;;;4.50;99.90;;;;;;5012291;28;20215;-75
2024/02/18 07:33:35;;;;;;;6.53;3.80;;;4.60;99.90;;;;;;5012095;28;20729;-75
2024/02/18 07:36:02;;;;;;;11.25;4.57;;;4.90;99.90;;;;;;5012225;28;20209;-75
2024/02/18 07:38:31;;;;;;;7.10;5.03;;;5.20;99.90;;;;;;5012250;28;20210;-75
2024/02/18 07:40:57;;;;;;;6.18;4.97;;;5.90;99.90;;;;;;5012080;28;20217;-74
2024/02/18 07:43:25;;;;;;;7.05;5.32;;;7.20;99.90;;;;;;5012282;28;20614;-73
2024/02/18 07:45:52;;;;;;;7.20;5.20;;;8.50;99.90;;;;;;5011783;28;20702;-74
2024/02/18 07:48:18;;;;;;;5.90;5.28;;;9.80;99.90;;;;;;5003912;28;20215;-74
2024/02/18 07:50:45;;;;;;;5.60;4.13;;;10.60;99.90;;;;;;5012198;28;20222;-74
2024/02/18 07:53:12;;;;;;;6.03;4.25;;;11.50;99.90;;;;;;5011880;28;20243;-74
2024/02/18 07:55:40;;;;;;;8.00;3.95;;;12.30;99.90;;;;;;5012056;28;20205;-75
2024/02/18 07:58:07;;;;;;;6.88;4.72;;;13.00;99.90;;;;;;5011666;28;20216;-75
2024/02/18 08:00:34;;;;;;;5.57;4.40;;;13.70;99.90;;;;;;5012017;28;20232;-75
2024/02/18 08:03:01;;;;;;;5.95;4.57;;;14.30;99.90;;;;;;5011383;28;20735;-75
2024/02/18 08:05:28;;;;;;;6.47;4.55;;;14.40;99.90;;;;;;5015694;28;20687;-75
2024/02/18 08:07:54;;;;;;;6.60;5.20;;;14.50;99.90;;;;;;5011516;28;20653;-75
2024/02/18 08:10:21;;;;;;;5.37;4.83;;;14.90;99.90;;;;;;5011927;28;20465;-75
2024/02/18 08:12:49;;;;;;;5.37;4.87;;;15.50;99.90;;;;;;5011517;28;20489;-75
2024/02/18 08:15:16;;;;;;;5.37;4.00;;;16.10;99.90;;;;;;5011754;28;20951;-75
2024/02/18 08:17:43;;;;;;;4.50;4.10;;;16.70;99.90;;;;;;5011603;28;20472;-74
2024/02/18 08:20:11;;;;;;;5.13;4.13;;;17.40;99.90;;;;;;5011417;28;20496;-74
2024/02/18 08:22:38;;;;;;;5.00;4.50;;;17.50;99.90;;;;;;5011499;28;20494;-74
2024/02/18 08:25:06;;;;;;;5.73;4.17;;;17.70;99.90;;;;;;5005936;28;20484;-74
2024/02/18 08:27:33;;;;;;;5.63;5.00;;;17.50;99.90;;;;;;5008818;28;20841;-73
2024/02/18 08:30:02;;;;;;;7.90;4.97;;;17.80;99.90;;;;;;5013324;28;20460;-73
2024/02/18 08:32:29;;;;;;;5.47;4.50;;;17.80;99.90;;;;;;5000405;28;20486;-73
2024/02/18 08:34:55;;;;;;;6.43;5.17;;;17.70;99.90;;;;;;5022863;28;20460;-73
2024/02/18 08:37:22;;;;;;;5.67;4.47;;;17.70;99.90;;;;;;5028997;28;20463;-73
2024/02/18 08:39:49;;;;;;;4.23;3.83;;;17.80;99.90;;;;;;5023888;28;20467;-72
2024/02/18 08:42:16;;;;;;;5.20;4.70;;;17.70;99.90;;;;;;5029092;28;20475;-73
2024/02/18 08:44:43;;;;;;;6.33;4.87;;;18.10;99.90;;;;;;5026748;28;20476;-73
2024/02/18 08:47:12;;;;;;;4.63;4.13;;;18.60;99.90;;;;;;5025997;28;20473;-73
2024/02/18 08:49:41;;;;;;;6.17;4.60;;;19.50;99.90;;;;;;5023575;28;20468;-73
2024/02/18 08:52:08;;;;;;;5.67;4.53;;;20.10;99.90;;;;;;5027142;28;20473;-73
2024/02/18 08:54:35;;;;;;;4.87;4.40;;;20.60;99.90;;;;;;5024711;28;20482;-73
2024/02/18 08:57:01;;;;;;;5.83;5.00;;;20.60;99.90;;;;;;5003407;28;20872;-74
2024/02/18 08:59:28;;;;;;;7.30;5.10;;;19.80;99.90;;;;;;5006309;28;20469;-75
2024/02/18 09:01:56;;;;;;;4.47;3.80;;;19.60;99.90;;;;;;5017930;28;20556;-72
2024/02/18 09:04:25;;;;;;;4.80;4.30;;;19.30;99.90;;;;;;5011659;28;20486;-71
2024/02/18 09:06:52;;;;;;;5.00;4.10;;;18.30;99.80;;;;;;5008689;28;21030;-71
2024/02/18 09:09:20;;;;;;;4.77;4.30;;;17.30;99.90;;;;;;5015454;28;20578;-71
2024/02/18 09:11:46;;;;;;;5.73;4.00;;;16.50;99.90;;;;;;5017232;28;20499;-74
2024/02/18 09:14:13;;;;;;;4.73;4.13;;;15.90;99.90;;;;;;5023333;28;20496;-74
2024/02/18 09:16:40;;;;;;;5.43;4.10;;;15.80;99.90;;;;;;5019880;28;20551;-74
2024/02/18 09:19:07;;;;;;;4.97;4.13;;;16.10;99.90;;;;;;5017148;28;20458;-74
2024/02/18 09:21:35;;;;;;;4.80;3.90;;;16.70;99.90;;;;;;5001368;28;20469;-74
2024/02/18 09:24:02;;;;;;;5.17;4.07;;;17.30;99.90;;;;;;5017057;28;20487;-74
2024/02/18 09:26:29;;;;;;;4.67;3.80;;;17.10;99.90;;;;;;5009872;28;20545;-74
2024/02/18 09:28:56;;;;;;;4.53;3.70;;;17.20;99.90;;;;;;5009927;28;20997;-75
2024/02/18 09:31:22;;;;;;;4.60;3.93;;;17.70;99.90;;;;;;5001471;28;20473;-74
2024/02/18 09:33:49;;;;;;;4.07;3.63;;;18.10;99.90;;;;;;5011390;28;20484;-71
2024/02/18 09:36:16;;;;;;;4.23;3.53;;;18.70;99.90;;;;;;5006165;28;20490;-73
2024/02/18 09:38:45;;;;;;;5.40;4.20;;;19.00;98.10;;;;;;5014347;28;20480;-71
2024/02/18 09:41:17;;;;;;;6.10;3.87;;;18.50;98.50;;;;;;5006768;28;20874;-74
2024/02/18 09:43:46;;;;;;;3.70;3.37;;;16.50;99.90;;;;;;5019389;28;20534;-73
2024/02/18 09:46:15;;;;;;;4.87;3.60;;;15.60;99.90;;;;;;5014237;28;20468;-74
2024/02/18 09:48:42;;;;;;;4.57;3.23;;;15.10;99.90;;;;;;5013819;28;20849;-74
2024/02/18 09:51:10;;;;;;;4.57;4.10;;;15.10;99.90;;;;;;5007461;28;20927;-74
2024/02/18 09:53:37;;;;;;;3.67;3.30;;;15.40;99.90;;;;;;5007684;28;20486;-73
2024/02/18 09:56:07;;;;;;;5.23;3.60;;;16.00;99.90;;;;;;5006123;28;20462;-74
2024/02/18 09:58:34;;;;;;;3.40;3.00;;;16.70;99.90;;;;;;5009557;28;20462;-73
2024/02/18 10:01:02;;;;;;;5.53;3.20;;;17.10;99.90;;;;;;5006060;28;20468;-73
2024/02/18 10:03:29;;;;;;;4.00;3.40;;;16.70;99.90;;;;;;5009501;28;20523;-73
2024/02/18 10:05:56;;;;;;;3.50;3.20;;;16.00;99.90;;;;;;5005800;28;20465;-73
2024/02/18 10:08:24;;;;;;;4.90;3.30;;;16.10;99.90;;;;;;5011677;28;20967;-73
2024/02/18 10:10:52;;;;;;;3.27;2.97;;;16.50;99.90;;;;;;5005058;28;20462;-73
2024/02/18 10:13:24;;;;;;;4.60;3.03;;;16.80;99.90;;;;;;5012031;28;20489;-73
2024/02/18 10:15:51;;;;;;;4.17;3.60;;;16.90;99.90;;;;;;5004560;28;20826;-73
2024/02/18 10:18:21;;;;;;;4.43;3.33;;;16.90;99.90;;;;;;5012322;28;20966;-73
2024/02/18 10:20:48;;;;;;;3.10;2.80;;;16.70;99.90;;;;;;5005218;28;20461;-73
2024/02/18 10:23:15;;;;;;;4.57;3.30;;;16.50;99.90;;;;;;5013950;28;20897;-73
2024/02/18 10:25:42;;;;;;;3.33;3.03;;;16.50;99.90;;;;;;5005168;28;20473;-73
2024/02/18 10:28:09;;;;;;;3.83;3.30;;;16.10;99.90;;;;;;5015673;28;20469;-72
2024/02/18 10:30:38;;;;;;;3.80;3.37;;;15.80;99.90;;;;;;5008784;28;20966;-73
2024/02/18 10:33:06;;;;;;;3.10;2.63;;;15.80;99.90;;;;;;5015816;28;20497;-72
2024/02/18 10:35:33;;;;;;;4.87;3.30;;;16.20;99.90;;;;;;5006450;28;20469;-75
2024/02/18 10:38:02;;;;;;;5.07;3.33;;;16.40;99.90;;;;;;5014980;28;20470;-72
2024/02/18 10:40:35;;;;;;;4.73;3.90;;;16.40;99.90;;;;;;5011525;28;20465;-72
2024/02/18 10:43:02;;;;;;;3.63;3.33;;;16.70;99.90;;;;;;5014807;28;20480;-73
2024/02/18 10:45:31;;;;;;;2.70;2.50;;;17.20;99.90;;;;;;5005372;28;21036;-72
2024/02/18 10:48:03;;;;;;;3.93;3.43;;;16.90;99.50;;;;;;5014300;28;20457;-73
2024/02/18 10:50:36;;;;;;;4.43;2.77;;;16.60;99.90;;;;;;5005325;28;20470;-73
2024/02/18 10:53:13;;;;;;;4.03;3.63;;;17.00;99.90;;;;;;5014402;28;20501;-73
2024/02/18 10:55:45;;;;;;;3.90;2.70;;;16.70;99.70;;;;;;5011760;28;20464;-72
2024/02/18 10:58:17;;;;;;;4.23;2.73;;;16.50;99.40;;;;;;5015825;28;20570;-72
2024/02/18 11:00:50;;;;;;;2.70;2.43;;;16.10;99.90;;;;;;5013561;28;20511;-72
2024/02/18 11:03:24;;;;;;;3.17;2.37;;;15.80;99.90;;;;;;5013403;28;20567;-72
2024/02/18 11:05:53;;;;;;;3.03;2.73;;;15.60;99.90;;;;;;5008535;28;20468;-73
2024/02/18 11:08:23;;;;;;;3.73;2.80;;;15.30;99.90;;;;;;5021616;28;20953;-72
2024/02/18 11:10:55;;;;;;;5.23;3.17;;;15.10;99.90;;;;;;5007607;28;20441;-73
2024/02/18 11:13:25;;;;;;;4.17;2.30;;;14.80;99.90;;;;;;5022124;28;20535;-72
2024/02/18 11:15:54;;;;;;;2.63;2.43;;;14.70;99.90;;;;;;5008730;28;20548;-75
2024/02/18 11:18:25;;;;;;;3.47;3.13;;;14.70;99.90;;;;;;5010797;28;20471;-72
2024/02/18 11:20:54;;;;;;;3.07;2.70;;;14.40;99.90;;;;;;5010176;28;20524;-75
2024/02/18 11:23:22;;;;;;;3.30;2.33;;;14.30;99.90;;;;;;5013553;28;20500;-73
2024/02/18 11:25:51;;;;;;;3.40;2.53;;;14.30;99.90;;;;;;5009463;28;20468;-74
2024/02/18 11:28:19;;;;;;;3.10;2.80;;;14.30;99.90;;;;;;5015116;28;21157;-73
2024/02/18 11:30:46;;;;;;;4.03;2.77;;;14.20;99.90;;;;;;5013388;28;20453;-73
2024/02/18 11:33:20;;;;;;;3.00;2.47;;;14.30;99.90;;;;;;5009950;28;21037;-73
2024/02/18 11:36:10;;;;;;;2.67;2.47;;;14.50;99.90;;;;;;5013742;28;20461;-74
2024/02/18 11:38:43;;;;;;;5.07;2.60;;;14.50;99.90;;;;;;5014180;28;20461;-72
2024/02/18 11:41:17;;;;;;;3.20;2.17;;;14.50;99.90;;;;;;5014024;28;20516;-71
2024/02/18 11:43:44;;;;;;;3.07;2.87;;;14.40;99.90;;;;;;5015516;28;20523;-72
2024/02/18 11:46:18;;;;;;;3.40;2.60;;;14.30;99.90;;;;;;5015221;28;20453;-72
2024/02/18 11:48:45;;;;;;;3.03;2.37;;;14.60;99.90;;;;;;5014205;28;20484;-72
2024/02/18 11:51:13;;;;;;;2.63;2.43;;;14.60;99.90;;;;;;5015368;28;20453;-72
2024/02/18 11:53:41;;;;;;;2.70;2.50;;;14.70;99.90;;;;;;5018025;28;20543;-73
2024/02/18 11:56:08;;;;;;;3.20;2.20;;;14.80;99.90;;;;;;5015107;28;20469;-73
2024/02/18 11:58:34;;;;;;;4.10;2.50;;;14.90;99.90;;;;;;5013431;28;20461;-72
2024/02/18 12:01:03;;;;;;;2.53;2.30;;;14.70;99.90;;;;;;5012636;28;20569;-72
2024/02/18 12:03:31;;;;;;;2.80;2.57;;;14.50;99.90;;;;;;5014061;28;20489;-72
2024/02/18 12:05:59;;;;;;;2.67;2.47;;;14.60;99.90;;;;;;5016820;28;20845;-73
2024/02/18 12:08:28;;;;;;;3.80;2.67;;;14.70;99.90;;;;;;5012374;28;20461;-72
2024/02/18 12:10:55;;;;;;;3.83;2.70;;;14.60;99.90;;;;;;5011905;28;20457;-73
2024/02/18 12:13:23;;;;;;;2.83;2.57;;;14.50;99.90;;;;;;5016988;28;20476;-73
2024/02/18 12:15:50;;;;;;;3.00;2.47;;;14.40;99.90;;;;;;5013765;28;20881;-71
2024/02/18 12:18:17;;;;;;;4.20;2.63;;;14.40;99.90;;;;;;5017834;28;20552;-72
2024/02/18 12:20:47;;;;;;;3.50;2.93;;;14.40;99.90;;;;;;5013913;28;20457;-73
2024/02/18 12:23:14;;;;;;;3.53;3.20;;;14.20;99.90;;;;;;5015492;28;20487;-72
2024/02/18 12:25:42;;;;;;;5.90;3.50;;;13.90;99.90;;;;;;5018488;28;20946;-72
2024/02/18 12:28:10;;;;;;;3.30;3.00;;;13.60;99.90;;;;;;5014551;28;20468;-72
2024/02/18 12:30:37;;;;;;;4.17;3.10;;;13.40;99.90;;;;;;5006788;28;20955;-72
2024/02/18 12:33:05;;;;;;;4.93;3.30;;;13.40;99.90;;;;;;5017554;28;20481;-72
2024/02/18 12:35:32;;;;;;;5.27;3.40;;;13.50;99.90;;;;;;5015413;28;20503;-72
2024/02/18 12:38:01;;;;;;;3.40;2.90;;;13.50;99.90;;;;;;5011855;28;20831;-72
2024/02/18 12:40:28;;;;;;;5.00;3.50;;;13.70;99.90;;;;;;5015889;28;20942;-72
2024/02/18 12:42:58;;;;;;;4.50;3.77;;;13.70;99.90;;;;;;5019364;28;20500;-72
2024/02/18 12:45:26;;;;;;;4.20;3.50;;;13.60;99.90;;;;;;5013874;28;20448;-72
2024/02/18 12:47:54;;;;;;;4.37;3.60;;;13.60;99.90;;;;;;5009072;28;20489;-72
2024/02/18 12:50:21;;;;;;;5.93;4.00;;;13.40;99.90;;;;;;5021362;28;20493;-72
2024/02/18 12:52:49;;;;;;;4.87;3.80;;;13.50;99.90;;;;;;5014151;28;20457;-72
2024/02/18 12:55:16;;;;;;;4.17;3.77;;;13.50;99.90;;;;;;5016447;28;20492;-72